createdAt,value
2023-01-17T00:02:02.904Z,5.00
2023-01-17T00:04:48.557Z,6.00
2023-01-17T00:07:36.588Z,7.00
2023-01-17T00:10:18.389Z,8.25
2023-01-17T00:12:51.036Z,4.00
2023-01-17T00:15:20.360Z,5.25
2023-01-17T00:17:48.515Z,5.25
2023-01-17T00:20:37.052Z,5.00
2023-01-17T00:23:43.137Z,6.00
2023-01-17T00:26:16.993Z,6.00
2023-01-17T00:28:44.610Z,4.50
2023-01-17T00:31:13.638Z,3.00
2023-01-17T00:33:43.712Z,3.00
2023-01-17T00:36:11.366Z,3.50
2023-01-17T00:38:39.705Z,3.00
2023-01-17T00:41:12.135Z,5.00
2023-01-17T00:43:57.822Z,5.00
2023-01-17T00:46:43.566Z,4.00
2023-01-17T00:49:29.333Z,2.75
2023-01-17T00:52:14.577Z,3.00
2023-01-17T00:55:00.344Z,3.00
2023-01-17T00:57:45.662Z,2.25
2023-01-17T01:00:31.518Z,2.75
2023-01-17T01:03:17.286Z,2.00
2023-01-17T01:06:02.457Z,1.00
2023-01-17T01:08:49.333Z,1.75
2023-01-17T01:11:39.735Z,5.00
2023-01-17T01:14:28.815Z,2.25
2023-01-17T01:17:14.071Z,1.00
2023-01-17T01:19:59.828Z,2.00
2023-01-17T01:22:45.390Z,2.00
2023-01-17T01:25:31.011Z,2.50
2023-01-17T01:28:30.798Z,3.50
2023-01-17T01:31:19.107Z,1.50
2023-01-17T01:33:46.063Z,1.50
2023-01-17T01:36:13.031Z,1.50
2023-01-17T01:38:40.281Z,2.25
2023-01-17T01:41:07.399Z,3.00
2023-01-17T01:43:48.210Z,0.50
2023-01-17T01:46:27.292Z,2.00
2023-01-17T01:49:01.939Z,2.75
2023-01-17T01:51:35.307Z,3.00
2023-01-17T01:54:10.929Z,2.75
2023-01-17T01:56:39.356Z,4.50
2023-01-17T01:59:10.883Z,2.00
2023-01-17T02:01:38.028Z,3.50
2023-01-17T02:04:10.118Z,2.50
2023-01-17T02:07:07.575Z,2.50
2023-01-17T02:09:52.569Z,2.25
2023-01-17T02:12:30.689Z,2.50
2023-01-17T02:15:18.679Z,2.00
2023-01-17T02:18:53.307Z,1.00
2023-01-17T02:21:59.098Z,1.25
2023-01-17T02:25:19.172Z,3.00
2023-01-17T02:28:18.594Z,2.00
2023-01-17T02:31:01.070Z,2.25
2023-01-17T02:33:36.405Z,3.00
2023-01-17T02:36:19.404Z,1.00
2023-01-17T02:39:11.335Z,2.00
2023-01-17T02:41:41.858Z,2.00
2023-01-17T02:44:10.523Z,2.25
2023-01-17T02:46:48.494Z,0.25
2023-01-17T02:49:18.033Z,5.00
2023-01-17T02:52:13.157Z,2.50
2023-01-17T02:54:53.947Z,5.50
2023-01-17T02:57:39.049Z,5.00
2023-01-17T03:00:24.711Z,6.00
2023-01-17T03:02:58.271Z,7.00
2023-01-17T03:05:47.149Z,5.25
2023-01-17T03:08:16.184Z,8.00
2023-01-17T03:10:44.703Z,5.25
2023-01-17T03:13:11.694Z,6.25
2023-01-17T03:15:41.101Z,7.50
2023-01-17T03:18:14.987Z,0.00
2023-01-17T03:20:42.544Z,3.25
2023-01-17T03:23:09.469Z,8.75
2023-01-17T03:25:36.455Z,6.00
2023-01-17T03:28:03.756Z,7.00
2023-01-17T03:30:30.928Z,14.00
2023-01-17T03:32:57.933Z,10.50
2023-01-17T03:35:24.859Z,8.00
2023-01-17T03:37:51.774Z,6.00
2023-01-17T03:40:18.800Z,8.25
2023-01-17T03:42:45.865Z,18.00
2023-01-17T03:45:12.808Z,25.00
2023-01-17T03:47:40.081Z,26.67
2023-01-17T03:50:07.332Z,17.00
2023-01-17T03:52:34.403Z,16.00
2023-01-17T03:55:02.869Z,9.00
2023-01-17T03:57:30.035Z,4.75
2023-01-17T03:59:57.094Z,6.00
2023-01-17T04:02:24.871Z,4.25
2023-01-17T04:04:53.953Z,4.50
2023-01-17T04:07:20.967Z,4.75
2023-01-17T04:09:47.901Z,2.00
2023-01-17T04:12:14.860Z,2.00
2023-01-17T04:14:41.801Z,2.00
2023-01-17T04:17:13.302Z,2.00
2023-01-17T04:19:41.470Z,0.50
2023-01-17T04:22:08.899Z,1.00
2023-01-17T04:24:36.160Z,0.00
2023-01-17T04:27:05.244Z,1.00
2023-01-17T04:29:32.791Z,1.00
2023-01-17T04:31:59.690Z,0.75
2023-01-17T04:34:27.184Z,0.00
2023-01-17T04:36:54.155Z,1.00
2023-01-17T04:39:21.084Z,8.00
2023-01-17T04:41:48.662Z,4.00
2023-01-17T04:44:15.618Z,4.00
2023-01-17T04:46:42.533Z,2.50
2023-01-17T04:49:09.403Z,1.25
2023-01-17T04:51:36.570Z,1.75
2023-01-17T04:54:04.649Z,2.00
2023-01-17T04:56:31.662Z,1.00
2023-01-17T04:58:58.834Z,1.00
2023-01-17T05:01:26.211Z,6.00
2023-01-17T05:03:53.155Z,23.00
2023-01-17T05:06:20.067Z,20.00
2023-01-17T05:08:47.248Z,22.00
2023-01-17T05:11:14.324Z,20.67
2023-01-17T05:13:41.264Z,22.67
2023-01-17T05:16:09.818Z,18.00
2023-01-17T05:18:37.867Z,16.00
2023-01-17T05:21:05.715Z,17.00
2023-01-17T05:23:33.315Z,20.00
2023-01-17T05:26:00.353Z,16.00
2023-01-17T05:28:27.279Z,16.33
2023-01-17T05:30:54.236Z,13.00
2023-01-17T05:33:21.184Z,12.00
2023-01-17T05:35:48.105Z,9.00
2023-01-17T05:38:15.053Z,9.00
2023-01-17T05:40:42.071Z,9.00
2023-01-17T05:43:09.840Z,11.00
2023-01-17T05:45:36.787Z,11.00
2023-01-17T05:48:04.304Z,9.00
2023-01-17T05:50:33.650Z,7.33
2023-01-17T05:53:08.731Z,5.75
2023-01-17T05:55:38.144Z,5.00
2023-01-17T05:58:06.587Z,3.00
2023-01-17T06:00:33.559Z,11.67
2023-01-17T06:03:01.731Z,19.00
2023-01-17T06:05:30.449Z,19.00
2023-01-17T06:07:57.652Z,19.00
2023-01-17T06:10:24.969Z,19.00
2023-01-17T06:13:08.463Z,23.00
2023-01-17T06:15:37.600Z,16.00
2023-01-17T06:18:16.135Z,12.00
2023-01-17T06:20:44.222Z,16.00
2023-01-17T06:23:14.358Z,15.00
2023-01-17T06:25:46.682Z,8.67
2023-01-17T06:28:16.235Z,10.33
2023-01-17T06:30:44.388Z,8.00
2023-01-17T06:33:12.533Z,6.00
2023-01-17T06:35:41.147Z,7.00
2023-01-17T06:38:10.212Z,5.00
2023-01-17T06:40:37.140Z,5.75
2023-01-17T06:43:05.297Z,2.50
2023-01-17T06:45:35.248Z,5.00
2023-01-17T06:48:04.338Z,8.00
2023-01-17T06:50:34.724Z,6.50
2023-01-17T06:53:04.575Z,5.50
2023-01-17T06:55:34.016Z,13.67
2023-01-17T06:58:03.161Z,24.00
2023-01-17T07:00:40.712Z,21.67
2023-01-17T07:03:17.578Z,19.67
2023-01-17T07:05:44.597Z,27.00
2023-01-17T07:08:11.534Z,20.67
2023-01-17T07:10:38.464Z,24.33
2023-01-17T07:13:05.415Z,22.33
2023-01-17T07:15:33.528Z,23.00
2023-01-17T07:18:02.206Z,19.00
2023-01-17T07:20:29.260Z,25.00
2023-01-17T07:22:56.345Z,15.67
2023-01-17T07:25:23.583Z,16.00
2023-01-17T07:27:54.996Z,13.00
2023-01-17T07:30:22.408Z,10.25
2023-01-17T07:32:53.648Z,8.00
2023-01-17T07:35:21.279Z,11.00
2023-01-17T07:37:49.745Z,27.00
2023-01-17T07:40:17.914Z,23.67
2023-01-17T07:42:45.331Z,31.00
2023-01-17T07:45:15.027Z,35.67
2023-01-17T07:47:42.173Z,31.33
2023-01-17T07:50:10.061Z,29.33
2023-01-17T07:52:37.023Z,23.67
2023-01-17T07:55:04.123Z,18.33
2023-01-17T07:57:32.982Z,14.33
2023-01-17T08:00:00.140Z,17.00
2023-01-17T08:02:27.069Z,12.67
2023-01-17T08:04:53.991Z,14.00
2023-01-17T08:07:21.062Z,13.33
2023-01-17T08:09:49.931Z,11.25
2023-01-17T08:12:17.462Z,13.75
2023-01-17T08:14:44.876Z,15.33
2023-01-17T08:17:17.065Z,18.00
2023-01-17T08:19:45.104Z,13.00
2023-01-17T08:22:12.619Z,18.67
2023-01-17T08:24:39.571Z,15.33
2023-01-17T08:27:06.531Z,13.25
2023-01-17T08:29:33.546Z,7.25
2023-01-17T08:32:00.536Z,22.00
2023-01-17T08:34:27.575Z,25.67
2023-01-17T08:36:54.794Z,9.33
2023-01-17T08:39:22.109Z,26.00
2023-01-17T08:41:48.988Z,24.67
2023-01-17T08:44:18.935Z,23.00
2023-01-17T08:46:46.321Z,18.67
2023-01-17T08:49:13.336Z,18.67
2023-01-17T08:51:40.540Z,10.50
2023-01-17T08:54:09.745Z,16.25
2023-01-17T08:56:36.698Z,25.67
2023-01-17T08:59:04.851Z,16.50
2023-01-17T09:01:40.993Z,18.67
2023-01-17T09:04:09.597Z,20.00
2023-01-17T09:06:39.498Z,12.25
2023-01-17T09:09:08.286Z,14.00
2023-01-17T09:11:35.250Z,12.67
2023-01-17T09:14:02.243Z,22.00
2023-01-17T09:16:29.631Z,24.67
2023-01-17T09:18:58.204Z,11.00
2023-01-17T09:21:26.567Z,14.00
2023-01-17T09:23:54.695Z,15.50
2023-01-17T09:26:27.352Z,14.25
2023-01-17T09:28:54.935Z,18.00
2023-01-17T09:31:23.280Z,15.25
2023-01-17T09:33:51.557Z,13.25
2023-01-17T09:36:18.964Z,11.00
2023-01-17T09:38:46.512Z,11.00
2023-01-17T09:41:22.470Z,8.25
2023-01-17T09:44:18.756Z,12.00
2023-01-17T09:46:49.379Z,9.25
2023-01-17T09:49:19.298Z,11.00
2023-01-17T09:51:46.474Z,12.00
2023-01-17T09:54:39.298Z,12.00
2023-01-17T09:57:29.204Z,10.50
2023-01-17T10:00:25.293Z,11.00
2023-01-17T10:03:32.287Z,12.00
2023-01-17T10:06:11.885Z,10.00
2023-01-17T10:08:54.190Z,12.00
2023-01-17T10:11:31.018Z,11.00
2023-01-17T10:14:16.350Z,13.00
2023-01-17T10:16:49.116Z,13.50
2023-01-17T10:19:53.013Z,10.50
2023-01-17T10:22:55.216Z,12.00
2023-01-17T10:25:46.817Z,15.75
2023-01-17T10:28:21.815Z,15.00
2023-01-17T10:30:58.347Z,17.50
2023-01-17T10:33:29.795Z,13.00
2023-01-17T10:36:03.954Z,19.00
2023-01-17T10:38:34.945Z,16.25
2023-01-17T10:41:10.983Z,17.00
2023-01-17T10:43:50.891Z,15.75
2023-01-17T10:46:25.336Z,18.25
2023-01-17T10:48:53.143Z,17.50
2023-01-17T10:51:44.207Z,13.00
2023-01-17T10:54:36.269Z,9.00
2023-01-17T10:57:03.270Z,10.00
2023-01-17T10:59:33.759Z,11.00
2023-01-17T11:02:07.227Z,8.00
2023-01-17T11:04:37.829Z,5.00
2023-01-17T11:07:16.457Z,9.00
2023-01-17T11:09:46.311Z,6.50
2023-01-17T11:12:46.373Z,10.25
2023-01-17T11:15:23.016Z,9.50
2023-01-17T11:18:02.478Z,8.50
2023-01-17T11:20:37.206Z,8.50
2023-01-17T11:23:16.029Z,8.50
2023-01-17T11:25:58.540Z,8.75
2023-01-17T11:28:30.816Z,3.00
2023-01-17T11:30:59.052Z,8.00
2023-01-17T11:33:55.873Z,8.00
2023-01-17T11:36:30.961Z,10.00
2023-01-17T11:39:27.731Z,9.00
2023-01-17T11:41:54.848Z,8.25
2023-01-17T11:44:30.762Z,6.25
2023-01-17T11:47:13.061Z,8.00
2023-01-17T11:49:45.137Z,6.00
2023-01-17T11:52:39.381Z,8.50
2023-01-17T11:55:07.599Z,6.25
2023-01-17T11:57:36.424Z,7.00
2023-01-17T12:00:19.578Z,7.00
2023-01-17T12:02:49.369Z,6.00
2023-01-17T12:05:31.413Z,4.50
2023-01-17T12:08:06.300Z,6.25
2023-01-17T12:10:43.063Z,6.75
2023-01-17T12:13:47.463Z,5.50
2023-01-17T12:16:30.799Z,3.75
2023-01-17T12:19:22.745Z,5.50
2023-01-17T12:22:06.029Z,4.00
2023-01-17T12:24:45.697Z,4.50
2023-01-17T12:27:42.794Z,7.00
2023-01-17T12:30:31.054Z,6.00
2023-01-17T12:33:41.380Z,7.00
2023-01-17T12:36:19.833Z,4.00
2023-01-17T12:38:48.455Z,3.00
2023-01-17T12:41:26.869Z,3.75
2023-01-17T12:44:01.134Z,3.00
2023-01-17T12:46:40.954Z,3.00
2023-01-17T12:49:20.413Z,3.75
2023-01-17T12:51:52.476Z,6.00
2023-01-17T12:54:42.218Z,5.00
2023-01-17T12:57:18.615Z,4.00
2023-01-17T12:59:58.564Z,4.00
2023-01-17T13:02:37.625Z,3.00
2023-01-17T13:05:07.676Z,3.00
2023-01-17T13:07:46.436Z,2.00
2023-01-17T13:10:22.685Z,2.75
2023-01-17T13:12:51.315Z,2.00
2023-01-17T13:15:23.013Z,3.00
2023-01-17T13:17:59.769Z,2.50
2023-01-17T13:20:32.154Z,3.50
2023-01-17T13:23:12.664Z,2.00
2023-01-17T13:25:49.576Z,2.50
2023-01-17T13:28:29.284Z,3.50
2023-01-17T13:31:08.364Z,2.75
2023-01-17T13:34:10.360Z,2.00
2023-01-17T13:36:46.583Z,3.00
2023-01-17T13:39:37.553Z,3.00
2023-01-17T13:42:27.729Z,3.00
2023-01-17T13:44:55.295Z,2.25
2023-01-17T13:47:23.720Z,2.75
2023-01-17T13:49:56.412Z,1.25
2023-01-17T13:52:26.208Z,2.25
2023-01-17T13:54:54.178Z,3.00
2023-01-17T13:57:29.579Z,3.00
2023-01-17T13:59:58.885Z,3.00
2023-01-17T14:02:31.760Z,3.00
2023-01-17T14:05:21.595Z,3.00
2023-01-17T14:07:52.545Z,3.50
2023-01-17T14:10:34.872Z,2.00
2023-01-17T14:13:03.397Z,13.00
2023-01-17T14:15:35.121Z,8.00
2023-01-17T14:18:04.979Z,8.25
2023-01-17T14:20:45.183Z,7.25
2023-01-17T14:23:26.439Z,8.00
2023-01-17T14:25:54.073Z,7.00
2023-01-17T14:28:38.904Z,4.25
2023-01-17T14:31:11.185Z,6.00
2023-01-17T14:33:40.574Z,6.00
2023-01-17T14:36:31.053Z,4.25
2023-01-17T14:38:58.104Z,3.00
2023-01-17T14:41:53.288Z,1.50
2023-01-17T14:44:20.351Z,2.00
2023-01-17T14:46:49.201Z,4.25
2023-01-17T14:49:24.333Z,7.00
2023-01-17T14:52:02.473Z,1.00
2023-01-17T14:54:29.744Z,3.00
2023-01-17T14:57:23.002Z,2.50
2023-01-17T14:59:50.051Z,1.00
2023-01-17T15:02:18.869Z,1.00
2023-01-17T15:04:55.564Z,0.75
2023-01-17T15:07:24.112Z,1.00
2023-01-17T15:09:51.125Z,1.00
2023-01-17T15:12:19.790Z,0.00
2023-01-17T15:14:47.015Z,1.00
2023-01-17T15:17:25.068Z,1.25
2023-01-17T15:19:57.376Z,0.00
2023-01-17T15:22:26.269Z,2.50
2023-01-17T15:24:56.431Z,2.00
2023-01-17T15:27:24.924Z,2.50
2023-01-17T15:29:52.667Z,7.75
2023-01-17T15:32:28.174Z,5.50
2023-01-17T15:34:55.310Z,5.50
2023-01-17T15:37:35.632Z,5.00
2023-01-17T15:40:33.447Z,3.00
2023-01-17T15:43:01.967Z,3.00
2023-01-17T15:45:33.537Z,2.00
2023-01-17T15:48:39.021Z,2.75
2023-01-17T15:51:06.424Z,2.00
2023-01-17T15:53:37.005Z,0.00
2023-01-17T15:56:31.997Z,2.00
2023-01-17T15:59:34.111Z,1.00
2023-01-17T16:02:02.615Z,5.00
2023-01-17T16:04:35.566Z,3.00
2023-01-17T16:07:20.616Z,5.50
2023-01-17T16:09:49.989Z,6.75
2023-01-17T16:12:16.881Z,8.00
2023-01-17T16:14:59.510Z,13.00
2023-01-17T16:17:32.047Z,11.25
2023-01-17T16:19:59.751Z,20.67
2023-01-17T16:22:27.610Z,16.00
2023-01-17T16:24:59.176Z,14.00
2023-01-17T16:27:26.158Z,6.00
2023-01-17T16:29:56.404Z,9.50
2023-01-17T16:32:23.446Z,10.50
2023-01-17T16:34:50.370Z,14.75
2023-01-17T16:37:17.303Z,16.67
2023-01-17T16:39:44.559Z,18.33
2023-01-17T16:42:12.519Z,29.00
2023-01-17T16:44:39.505Z,34.33
2023-01-17T16:47:06.445Z,34.00
2023-01-17T16:49:33.449Z,26.00
2023-01-17T16:52:00.589Z,22.00
2023-01-17T16:54:28.012Z,17.67
2023-01-17T16:56:55.229Z,13.00
2023-01-17T16:59:23.152Z,5.00
2023-01-17T17:01:53.784Z,10.75
2023-01-17T17:04:20.850Z,10.00
2023-01-17T17:06:47.817Z,9.00
2023-01-17T17:09:14.696Z,11.00
2023-01-17T17:11:42.477Z,16.00
2023-01-17T17:14:09.688Z,14.33
2023-01-17T17:16:38.916Z,16.00
2023-01-17T17:19:07.505Z,20.67
2023-01-17T17:21:35.874Z,30.33
2023-01-17T17:24:03.193Z,36.00
2023-01-17T17:26:34.383Z,32.00
2023-01-17T17:29:02.223Z,26.00
2023-01-17T17:31:29.373Z,22.33
2023-01-17T17:34:01.399Z,25.67
2023-01-17T17:36:29.075Z,35.00
2023-01-17T17:38:57.803Z,40.50
2023-01-17T17:41:27.752Z,41.25
2023-01-17T17:43:55.323Z,41.25
2023-01-17T17:46:24.080Z,32.00
2023-01-17T17:48:51.525Z,26.33
2023-01-17T17:51:31.079Z,26.00
2023-01-17T17:54:03.304Z,18.33
2023-01-17T17:56:32.047Z,16.67
2023-01-17T17:59:00.053Z,11.00
2023-01-17T18:01:27.260Z,10.00
2023-01-17T18:03:57.721Z,10.00
2023-01-17T18:06:24.696Z,25.33
2023-01-17T18:08:54.920Z,26.00
2023-01-17T18:11:24.713Z,26.67
2023-01-17T18:13:55.179Z,20.00
2023-01-17T18:16:28.155Z,12.00
2023-01-17T18:18:57.624Z,10.00
2023-01-17T18:21:33.921Z,20.33
2023-01-17T18:24:06.985Z,34.33
2023-01-17T18:26:37.275Z,34.33
2023-01-17T18:29:05.784Z,35.33
2023-01-17T18:31:32.820Z,30.33
2023-01-17T18:34:03.847Z,27.00
2023-01-17T18:36:31.136Z,35.67
2023-01-17T18:38:58.533Z,33.33
2023-01-17T18:41:29.366Z,36.00
2023-01-17T18:43:56.861Z,32.00
2023-01-17T18:46:26.437Z,34.33
2023-01-17T18:48:57.475Z,32.00
2023-01-17T18:51:24.960Z,39.00
2023-01-17T18:53:53.224Z,37.00
2023-01-17T18:56:22.581Z,42.50
2023-01-17T18:58:51.244Z,45.75
2023-01-17T19:01:27.521Z,47.25
2023-01-17T19:04:00.097Z,47.00
2023-01-17T19:06:36.441Z,45.25
2023-01-17T19:09:04.514Z,39.00
2023-01-17T19:11:31.530Z,63.00
2023-01-17T19:13:58.504Z,58.00
2023-01-17T19:16:28.605Z,47.50
2023-01-17T19:18:58.257Z,47.25
2023-01-17T19:21:27.742Z,48.50
2023-01-17T19:23:56.199Z,45.75
2023-01-17T19:26:25.296Z,47.00
2023-01-17T19:28:53.053Z,48.00
2023-01-17T19:31:22.318Z,45.00
2023-01-17T19:33:51.047Z,49.00
2023-01-17T19:36:21.212Z,45.75
2023-01-17T19:39:03.016Z,42.50
2023-01-17T19:41:32.614Z,38.00
2023-01-17T19:44:04.558Z,33.33
2023-01-17T19:46:32.647Z,33.33
2023-01-17T19:48:59.851Z,35.00
2023-01-17T19:51:27.343Z,26.50
2023-01-17T19:53:55.439Z,30.67
2023-01-17T19:56:25.013Z,31.67
2023-01-17T19:58:53.068Z,32.00
2023-01-17T20:01:28.883Z,27.00
2023-01-17T20:03:58.144Z,27.00
2023-01-17T20:06:27.971Z,27.00
2023-01-17T20:08:55.047Z,27.67
2023-01-17T20:11:23.891Z,20.67
2023-01-17T20:13:55.839Z,27.33
2023-01-17T20:16:24.197Z,18.33
2023-01-17T20:18:51.917Z,26.33
2023-01-17T20:21:24.523Z,27.33
2023-01-17T20:23:52.465Z,14.00
2023-01-17T20:26:25.374Z,13.00
2023-01-17T20:28:53.503Z,14.00
2023-01-17T20:31:25.512Z,20.33
2023-01-17T20:33:56.419Z,18.00
2023-01-17T20:36:25.935Z,13.33
2023-01-17T20:38:54.660Z,14.00
2023-01-17T20:41:29.037Z,19.33
2023-01-17T20:43:58.347Z,19.67
2023-01-17T20:46:28.257Z,18.33
2023-01-17T20:48:58.484Z,26.33
2023-01-17T20:51:28.024Z,22.00
2023-01-17T20:54:05.769Z,14.67
2023-01-17T20:56:37.976Z,16.33
2023-01-17T20:59:07.831Z,16.67
2023-01-17T21:01:35.306Z,14.00
2023-01-17T21:04:03.431Z,12.67
2023-01-17T21:06:30.758Z,13.00
2023-01-17T21:08:57.745Z,8.75
2023-01-17T21:11:27.935Z,9.75
2023-01-17T21:13:54.931Z,13.25
2023-01-17T21:16:23.194Z,11.00
2023-01-17T21:18:51.769Z,19.33
2023-01-17T21:21:23.706Z,25.67
2023-01-17T21:23:52.920Z,18.00
2023-01-17T21:26:22.358Z,19.67
2023-01-17T21:28:50.899Z,21.67
2023-01-17T21:31:24.019Z,20.67
2023-01-17T21:34:11.418Z,26.00
2023-01-17T21:36:40.822Z,27.33
2023-01-17T21:39:12.913Z,30.00
2023-01-17T21:41:41.297Z,26.00
2023-01-17T21:44:24.351Z,27.33
2023-01-17T21:46:56.355Z,26.00
2023-01-17T21:49:23.673Z,22.67
2023-01-17T21:51:53.711Z,21.33
2023-01-17T21:54:44.241Z,25.67
2023-01-17T21:57:30.816Z,23.33
2023-01-17T21:59:57.823Z,26.67
2023-01-17T22:02:24.798Z,25.67
2023-01-17T22:04:51.772Z,29.67
2023-01-17T22:07:18.725Z,29.67
2023-01-17T22:09:45.685Z,27.33
2023-01-17T22:12:16.146Z,30.33
2023-01-17T22:14:43.081Z,26.67
2023-01-17T22:17:09.999Z,35.67
2023-01-17T22:19:36.961Z,31.00
2023-01-17T22:22:04.176Z,33.67
2023-01-17T22:24:31.131Z,29.33
2023-01-17T22:26:58.010Z,30.33
2023-01-17T22:29:25.134Z,26.00
2023-01-17T22:31:52.039Z,27.33
2023-01-17T22:34:19.154Z,22.00
2023-01-17T22:36:46.063Z,22.00
2023-01-17T22:39:13.073Z,23.00
2023-01-17T22:41:40.073Z,21.67
2023-01-17T22:44:07.829Z,26.00
2023-01-17T22:46:38.643Z,30.00
2023-01-17T22:49:07.852Z,29.00
2023-01-17T22:51:35.463Z,29.00
2023-01-17T22:54:02.919Z,29.00
2023-01-17T22:56:32.381Z,31.00
2023-01-17T22:59:01.015Z,28.67
2023-01-17T23:01:30.414Z,24.00
2023-01-17T23:04:00.211Z,30.67
2023-01-17T23:06:32.243Z,29.67
2023-01-17T23:09:02.006Z,31.00
2023-01-17T23:11:39.235Z,30.00
2023-01-17T23:14:06.876Z,28.33
2023-01-17T23:16:52.901Z,27.00
2023-01-17T23:19:22.833Z,28.33
2023-01-17T23:22:14.572Z,27.67
2023-01-17T23:24:43.559Z,2.00
2023-01-17T23:27:31.472Z,26.00
2023-01-17T23:29:58.694Z,22.67
2023-01-17T23:32:26.408Z,26.00
2023-01-17T23:34:53.704Z,23.00
2023-01-17T23:37:20.653Z,26.00
2023-01-17T23:39:47.624Z,25.00
2023-01-17T23:42:34.365Z,19.00
2023-01-17T23:45:01.343Z,14.00
2023-01-17T23:47:28.324Z,17.00
2023-01-17T23:49:57.281Z,14.00
2023-01-17T23:52:24.324Z,9.75
2023-01-17T23:54:51.698Z,17.00
2023-01-17T23:57:20.008Z,13.00
2023-01-17T23:59:46.966Z,19.67
